createdAt,value
2017-09-27T00:02:04.883Z,37.50
2017-09-27T00:04:33.502Z,42.70
2017-09-27T00:07:02.165Z,38.53
2017-09-27T00:09:30.784Z,36.67
2017-09-27T00:11:59.495Z,39.50
2017-09-27T00:14:28.149Z,40.57
2017-09-27T00:16:56.805Z,37.33
2017-09-27T00:19:25.480Z,37.63
2017-09-27T00:21:54.135Z,35.53
2017-09-27T00:24:22.826Z,42.03
2017-09-27T00:26:51.462Z,36.37
2017-09-27T00:29:20.128Z,38.80
2017-09-27T00:31:48.792Z,36.43
2017-09-27T00:34:17.414Z,40.03
2017-09-27T00:36:46.104Z,33.43
2017-09-27T00:39:14.771Z,41.50
2017-09-27T00:41:43.397Z,41.33
2017-09-27T00:44:11.925Z,39.00
2017-09-27T00:46:40.422Z,34.73
2017-09-27T00:49:09.115Z,34.50
2017-09-27T00:51:37.749Z,39.43
2017-09-27T00:54:06.378Z,36.73
2017-09-27T00:56:34.748Z,48.70
2017-09-27T00:59:03.098Z,40.23
2017-09-27T01:01:31.774Z,35.53
2017-09-27T01:04:00.402Z,41.60
2017-09-27T01:06:29.033Z,37.67
2017-09-27T01:08:57.701Z,45.80
2017-09-27T01:11:26.026Z,44.03
2017-09-27T01:13:54.691Z,42.70
2017-09-27T01:16:23.351Z,42.70
2017-09-27T01:18:51.978Z,48.37
2017-09-27T01:21:20.334Z,41.97
2017-09-27T01:23:48.652Z,42.87
2017-09-27T01:26:17.020Z,37.70
2017-09-27T01:28:45.678Z,45.80
2017-09-27T01:31:14.317Z,39.73
2017-09-27T01:33:43.038Z,53.47
2017-09-27T01:36:11.204Z,47.50
2017-09-27T01:38:39.523Z,44.67
2017-09-27T01:41:08.236Z,40.40
2017-09-27T01:43:36.533Z,43.73
2017-09-27T01:46:04.879Z,40.87
2017-09-27T01:48:37.258Z,42.33
2017-09-27T01:51:05.969Z,45.17
2017-09-27T01:53:34.635Z,45.80
2017-09-27T01:56:02.982Z,41.17
2017-09-27T01:58:35.433Z,42.03
2017-09-27T02:01:04.130Z,42.97
2017-09-27T02:03:32.745Z,40.70
2017-09-27T02:06:01.381Z,43.40
2017-09-27T02:08:30.082Z,41.63
2017-09-27T02:10:58.714Z,44.30
2017-09-27T02:13:27.390Z,45.23
2017-09-27T02:16:00.550Z,39.20
2017-09-27T02:18:29.212Z,46.60
2017-09-27T02:20:57.841Z,44.40
2017-09-27T02:23:26.461Z,51.67
2017-09-27T02:25:55.130Z,42.70
2017-09-27T02:28:23.785Z,43.87
2017-09-27T02:30:52.453Z,40.07
2017-09-27T02:33:21.091Z,50.87
2017-09-27T02:35:49.741Z,49.30
2017-09-27T02:38:18.433Z,44.43
2017-09-27T02:40:47.097Z,51.87
2017-09-27T02:43:15.730Z,43.83
2017-09-27T02:45:44.404Z,40.37
2017-09-27T02:48:13.042Z,52.50
2017-09-27T02:50:41.653Z,42.17
2017-09-27T02:53:10.314Z,46.60
2017-09-27T02:55:38.965Z,47.47
2017-09-27T02:58:07.666Z,43.47
2017-09-27T03:00:36.355Z,49.73
2017-09-27T03:03:04.978Z,45.03
2017-09-27T03:05:33.657Z,48.97
2017-09-27T03:08:02.278Z,39.40
2017-09-27T03:10:31.058Z,51.50
2017-09-27T03:12:59.722Z,37.80
2017-09-27T03:15:28.333Z,46.10
2017-09-27T03:17:56.994Z,49.30
2017-09-27T03:20:25.615Z,43.60
2017-09-27T03:22:54.249Z,46.83
2017-09-27T03:25:22.765Z,43.60
2017-09-27T03:27:51.286Z,42.13
2017-09-27T03:30:19.908Z,47.40
2017-09-27T03:32:48.593Z,47.13
2017-09-27T03:35:16.989Z,42.30
2017-09-27T03:37:45.597Z,46.13
2017-09-27T03:40:14.253Z,45.87
2017-09-27T03:42:42.869Z,40.70
2017-09-27T03:45:11.583Z,49.03
2017-09-27T03:47:40.201Z,43.90
2017-09-27T03:50:08.814Z,43.27
2017-09-27T03:52:37.533Z,49.03
2017-09-27T03:55:06.181Z,48.43
2017-09-27T03:57:34.882Z,43.00
2017-09-27T04:00:03.382Z,48.57
2017-09-27T04:02:32.078Z,40.63
2017-09-27T04:05:00.730Z,47.57
2017-09-27T04:07:29.349Z,54.17
2017-09-27T04:09:58.009Z,48.17
2017-09-27T04:12:26.679Z,49.93
2017-09-27T04:14:55.302Z,46.10
2017-09-27T04:17:23.933Z,43.90
2017-09-27T04:19:52.580Z,48.80
2017-09-27T04:22:21.198Z,45.30
2017-09-27T04:24:49.852Z,45.33
2017-09-27T04:27:18.560Z,48.87
2017-09-27T04:29:48.731Z,44.17
2017-09-27T04:32:17.405Z,50.00
2017-09-27T04:34:46.016Z,45.50
2017-09-27T04:37:15.865Z,45.97
2017-09-27T04:39:45.629Z,59.93
2017-09-27T04:42:16.326Z,53.83
2017-09-27T04:44:45.006Z,55.97
2017-09-27T04:47:13.667Z,56.80
2017-09-27T04:49:42.314Z,52.60
2017-09-27T04:52:10.927Z,58.60
2017-09-27T04:54:39.597Z,58.67
2017-09-27T04:57:08.219Z,56.07
2017-09-27T04:59:36.887Z,56.97
2017-09-27T05:02:05.369Z,55.33
2017-09-27T05:04:34.030Z,57.27
2017-09-27T05:07:02.696Z,58.03
2017-09-27T05:09:31.383Z,49.33
2017-09-27T05:12:00.039Z,54.50
2017-09-27T05:14:28.701Z,59.37
2017-09-27T05:16:57.357Z,56.03
2017-09-27T05:19:25.995Z,53.13
2017-09-27T05:21:54.618Z,54.47
2017-09-27T05:24:23.327Z,66.13
2017-09-27T05:26:52.004Z,51.63
2017-09-27T05:29:20.613Z,56.60
2017-09-27T05:31:49.232Z,60.73
2017-09-27T05:34:17.887Z,55.30
2017-09-27T05:36:46.525Z,60.33
2017-09-27T05:39:15.193Z,58.07
2017-09-27T05:41:43.808Z,57.13
2017-09-27T05:44:12.434Z,61.47
2017-09-27T05:46:41.102Z,69.00
2017-09-27T05:49:09.585Z,60.77
2017-09-27T05:51:38.373Z,63.40
2017-09-27T05:54:07.028Z,63.43
2017-09-27T05:56:35.563Z,64.73
2017-09-27T05:59:04.197Z,63.50
2017-09-27T06:01:32.868Z,62.80
2017-09-27T06:04:01.535Z,57.57
2017-09-27T06:06:30.210Z,64.47
2017-09-27T06:08:58.869Z,64.47
2017-09-27T06:11:27.507Z,64.50
2017-09-27T06:13:56.166Z,56.50
2017-09-27T06:16:24.784Z,60.27
2017-09-27T06:18:53.399Z,57.60
2017-09-27T06:21:22.078Z,61.27
2017-09-27T06:23:50.718Z,64.40
2017-09-27T06:26:19.398Z,56.03
2017-09-27T06:28:48.025Z,68.43
2017-09-27T06:31:16.522Z,64.70
2017-09-27T06:33:45.174Z,67.23
2017-09-27T06:36:13.840Z,61.20
2017-09-27T06:38:42.449Z,67.77
2017-09-27T06:41:11.094Z,64.50
2017-09-27T06:43:39.772Z,69.93
2017-09-27T06:46:08.489Z,74.20
2017-09-27T06:48:37.802Z,66.27
2017-09-27T06:51:06.437Z,67.57
2017-09-27T06:53:35.109Z,69.10
2017-09-27T06:56:03.738Z,61.00
2017-09-27T06:58:34.895Z,64.63
2017-09-27T07:01:03.566Z,62.20
2017-09-27T07:03:32.242Z,70.13
2017-09-27T07:06:00.912Z,75.03
2017-09-27T07:08:29.607Z,75.97
2017-09-27T07:10:58.287Z,69.90
2017-09-27T07:13:26.980Z,64.20
2017-09-27T07:15:55.590Z,64.53
2017-09-27T07:18:24.204Z,67.07
2017-09-27T07:20:52.861Z,73.40
2017-09-27T07:23:21.477Z,69.50
2017-09-27T07:25:50.221Z,68.03
2017-09-27T07:28:18.863Z,63.13
2017-09-27T07:30:47.514Z,70.90
2017-09-27T07:33:16.058Z,63.47
2017-09-27T07:35:44.742Z,66.60
2017-09-27T07:38:13.358Z,64.50
2017-09-27T07:40:42.011Z,71.80
2017-09-27T07:43:10.621Z,69.63
2017-09-27T07:45:39.323Z,66.20
2017-09-27T07:48:07.941Z,75.07
2017-09-27T07:50:36.565Z,66.20
2017-09-27T07:53:05.215Z,68.87
2017-09-27T07:55:33.866Z,83.13
2017-09-27T07:58:02.489Z,72.93
2017-09-27T08:00:31.100Z,66.50
2017-09-27T08:02:59.781Z,72.10
2017-09-27T08:05:28.469Z,72.33
2017-09-27T08:07:57.129Z,63.60
2017-09-27T08:10:25.797Z,66.90
2017-09-27T08:12:54.405Z,63.13
2017-09-27T08:15:23.073Z,61.10
2017-09-27T08:17:51.695Z,60.37
2017-09-27T08:20:20.361Z,66.67
2017-09-27T08:22:48.989Z,62.20
2017-09-27T08:25:17.672Z,64.43
2017-09-27T08:27:46.277Z,67.00
2017-09-27T08:30:14.893Z,66.47
2017-09-27T08:32:43.546Z,54.93
2017-09-27T08:35:12.243Z,59.80
2017-09-27T08:37:40.898Z,63.83
2017-09-27T08:40:09.543Z,56.30
2017-09-27T08:42:38.227Z,61.10
2017-09-27T08:45:06.845Z,67.00
2017-09-27T08:47:35.509Z,63.37
2017-09-27T08:50:04.170Z,59.10
2017-09-27T08:52:32.852Z,57.00
2017-09-27T08:55:01.466Z,59.37
2017-09-27T08:57:30.139Z,66.07
2017-09-27T08:59:58.781Z,58.10
2017-09-27T09:02:27.410Z,56.80
2017-09-27T09:04:56.173Z,57.23
2017-09-27T09:07:24.639Z,54.13
2017-09-27T09:09:53.310Z,56.40
2017-09-27T09:12:21.922Z,60.87
2017-09-27T09:14:50.615Z,60.87
2017-09-27T09:17:19.230Z,57.50
2017-09-27T09:19:47.901Z,62.93
2017-09-27T09:22:16.549Z,58.30
2017-09-27T09:24:45.180Z,61.00
2017-09-27T09:27:13.842Z,54.70
2017-09-27T09:29:42.495Z,61.47
2017-09-27T09:32:11.118Z,54.60
2017-09-27T09:34:39.794Z,61.17
2017-09-27T09:37:08.481Z,56.77
2017-09-27T09:39:37.134Z,52.87
2017-09-27T09:42:05.745Z,56.20
2017-09-27T09:44:34.486Z,61.17
2017-09-27T09:47:03.145Z,56.17
2017-09-27T09:49:31.819Z,57.70
2017-09-27T09:52:00.430Z,62.73
2017-09-27T09:54:29.126Z,57.70
2017-09-27T09:56:57.761Z,62.10
2017-09-27T09:59:26.473Z,50.07
2017-09-27T10:01:55.086Z,59.33
2017-09-27T10:04:23.745Z,69.20
2017-09-27T10:06:52.420Z,53.00
2017-09-27T10:09:21.026Z,61.30
2017-09-27T10:11:49.679Z,55.53
2017-09-27T10:14:18.299Z,62.97
2017-09-27T10:16:46.974Z,59.93
2017-09-27T10:19:15.602Z,52.40
2017-09-27T10:21:44.321Z,55.63
2017-09-27T10:24:12.978Z,55.60
2017-09-27T10:26:41.589Z,62.50
2017-09-27T10:29:10.384Z,60.43
2017-09-27T10:31:38.989Z,55.30
2017-09-27T10:34:07.677Z,57.53
2017-09-27T10:36:36.303Z,54.47
2017-09-27T10:39:04.413Z,54.40
2017-09-27T10:41:33.083Z,54.93
2017-09-27T10:44:01.751Z,56.53
2017-09-27T10:46:30.408Z,61.00
2017-09-27T10:48:59.022Z,63.17
2017-09-27T10:51:27.683Z,50.33
2017-09-27T10:53:56.313Z,52.67
2017-09-27T10:56:24.970Z,57.10
2017-09-27T10:58:53.592Z,54.43
2017-09-27T11:01:22.249Z,49.20
2017-09-27T11:03:50.873Z,53.73
2017-09-27T11:06:19.539Z,62.13
2017-09-27T11:08:48.179Z,50.23
2017-09-27T11:11:16.889Z,61.13
2017-09-27T11:13:45.566Z,46.30
2017-09-27T11:16:15.613Z,58.73
2017-09-27T11:18:44.226Z,55.80
2017-09-27T11:21:12.934Z,57.60
2017-09-27T11:23:41.601Z,49.80
2017-09-27T11:26:10.265Z,46.60
2017-09-27T11:28:38.894Z,51.27
2017-09-27T11:31:07.557Z,52.93
2017-09-27T11:33:36.189Z,51.97
2017-09-27T11:36:04.821Z,48.97
2017-09-27T11:38:35.423Z,45.30
2017-09-27T11:41:04.113Z,47.77
2017-09-27T11:43:32.778Z,55.03
2017-09-27T11:46:01.381Z,45.37
2017-09-27T11:51:05.303Z,44.63
2017-09-27T11:53:33.990Z,53.90
2017-09-27T11:56:02.615Z,49.67
2017-09-27T11:58:34.790Z,47.57
2017-09-27T12:01:03.452Z,49.30
2017-09-27T12:03:31.975Z,44.80
2017-09-27T12:06:00.606Z,44.50
2017-09-27T12:08:29.226Z,45.37
2017-09-27T12:10:57.909Z,45.43
2017-09-27T12:13:26.546Z,38.03
2017-09-27T12:15:55.162Z,42.20
2017-09-27T12:18:23.825Z,37.37
2017-09-27T12:20:52.433Z,38.30
2017-09-27T12:23:21.108Z,42.47
2017-09-27T12:25:49.723Z,35.40
2017-09-27T12:28:18.389Z,36.43
2017-09-27T12:30:47.006Z,41.53
2017-09-27T12:33:15.639Z,39.53
2017-09-27T12:35:44.335Z,39.97
2017-09-27T12:38:12.958Z,40.40
2017-09-27T12:40:41.654Z,36.03
2017-09-27T12:43:10.270Z,34.50
2017-09-27T12:45:38.948Z,47.40
2017-09-27T12:48:07.574Z,39.73
2017-09-27T12:50:36.242Z,39.10
2017-09-27T12:53:04.905Z,41.00
2017-09-27T12:55:33.570Z,41.00
2017-09-27T12:58:02.194Z,43.93
2017-09-27T13:00:30.852Z,39.17
2017-09-27T13:02:59.532Z,42.37
2017-09-27T13:05:28.154Z,39.00
2017-09-27T13:07:56.827Z,43.13
2017-09-27T13:10:25.453Z,43.40
2017-09-27T13:12:54.066Z,47.20
2017-09-27T13:15:22.738Z,41.40
2017-09-27T13:17:51.399Z,42.03
2017-09-27T13:20:20.067Z,45.20
2017-09-27T13:22:48.696Z,46.10
2017-09-27T13:25:17.305Z,46.37
2017-09-27T13:27:45.970Z,58.17
2017-09-27T13:30:14.598Z,46.40
2017-09-27T13:32:43.262Z,47.90
2017-09-27T13:35:11.889Z,53.37
2017-09-27T13:37:40.513Z,51.57
2017-09-27T13:40:09.173Z,52.43
2017-09-27T13:42:37.813Z,48.23
2017-09-27T13:45:06.485Z,53.03
2017-09-27T13:47:35.103Z,45.80
2017-09-27T13:50:03.727Z,58.40
2017-09-27T13:52:32.386Z,54.07
2017-09-27T13:55:01.070Z,50.30
2017-09-27T13:57:29.707Z,48.67
2017-09-27T13:59:58.372Z,52.70
2017-09-27T14:02:27.037Z,58.60
2017-09-27T14:04:55.718Z,49.57
2017-09-27T14:07:24.334Z,58.20
2017-09-27T14:09:52.966Z,48.37
2017-09-27T14:12:21.700Z,48.23
2017-09-27T14:14:50.309Z,53.80
2017-09-27T14:17:18.968Z,55.27
2017-09-27T14:19:47.603Z,48.93
2017-09-27T14:22:16.292Z,47.00
2017-09-27T14:24:44.909Z,48.10
2017-09-27T14:27:13.522Z,51.00
2017-09-27T14:29:42.211Z,57.90
2017-09-27T14:32:10.880Z,50.20
2017-09-27T14:34:39.497Z,50.00
2017-09-27T14:37:08.135Z,46.50
2017-09-27T14:39:36.801Z,51.00
2017-09-27T14:42:05.494Z,58.90
2017-09-27T14:44:34.134Z,56.00
2017-09-27T14:47:02.789Z,55.70
2017-09-27T14:49:31.425Z,45.37
2017-09-27T14:52:13.812Z,55.80
2017-09-27T14:54:43.257Z,58.67
2017-09-27T14:57:11.942Z,56.77
2017-09-27T14:59:40.593Z,65.20
2017-09-27T15:02:09.237Z,55.77
2017-09-27T15:04:37.905Z,46.90
2017-09-27T15:07:06.567Z,55.13
2017-09-27T15:09:35.253Z,50.33
2017-09-27T15:12:03.875Z,65.97
2017-09-27T15:14:32.498Z,54.47
2017-09-27T15:17:01.145Z,48.43
2017-09-27T15:19:29.770Z,58.77
2017-09-27T15:21:58.465Z,61.33
2017-09-27T15:24:27.160Z,54.07
2017-09-27T15:26:55.770Z,53.30
2017-09-27T15:29:24.392Z,53.33
2017-09-27T15:31:53.058Z,54.93
2017-09-27T15:34:21.718Z,58.53
2017-09-27T15:36:50.382Z,58.77
2017-09-27T15:39:19.029Z,57.80
2017-09-27T15:41:47.712Z,56.07
2017-09-27T15:44:16.366Z,65.27
2017-09-27T15:46:45.022Z,54.97
2017-09-27T15:49:13.648Z,64.60
2017-09-27T15:51:42.338Z,58.77
2017-09-27T15:54:10.953Z,52.00
2017-09-27T15:56:39.631Z,66.47
2017-09-27T15:59:08.253Z,60.83
2017-09-27T16:01:39.331Z,59.73
2017-09-27T16:04:08.003Z,63.63
2017-09-27T16:06:36.634Z,61.90
2017-09-27T16:09:04.837Z,55.30
2017-09-27T16:11:33.461Z,62.83
2017-09-27T16:14:02.131Z,58.47
2017-09-27T16:16:30.783Z,67.40
2017-09-27T16:18:59.406Z,50.63
2017-09-27T16:21:28.074Z,61.13
2017-09-27T16:23:56.857Z,51.73
2017-09-27T16:26:25.521Z,59.00
2017-09-27T16:28:54.191Z,58.90
2017-09-27T16:31:22.845Z,58.97
2017-09-27T16:33:51.459Z,66.03
2017-09-27T16:36:20.164Z,65.17
2017-09-27T16:38:48.790Z,52.27
2017-09-27T16:41:17.401Z,54.30
2017-09-27T16:43:46.071Z,51.07
2017-09-27T16:46:14.698Z,55.57
2017-09-27T16:48:43.351Z,54.53
2017-09-27T16:51:11.974Z,58.57
2017-09-27T16:53:40.634Z,47.77
2017-09-27T16:56:09.302Z,51.60
2017-09-27T16:58:37.970Z,53.93
2017-09-27T17:01:06.606Z,52.20
2017-09-27T17:03:35.282Z,47.60
2017-09-27T17:06:03.942Z,53.10
2017-09-27T17:08:35.006Z,52.93
2017-09-27T17:11:03.664Z,51.47
2017-09-27T17:13:32.334Z,56.63
2017-09-27T17:16:00.971Z,49.03
2017-09-27T17:18:29.634Z,57.17
2017-09-27T17:20:58.237Z,60.57
2017-09-27T17:23:26.893Z,43.73
2017-09-27T17:25:59.316Z,53.57
2017-09-27T17:28:28.078Z,48.03
2017-09-27T17:31:06.781Z,52.83
2017-09-27T17:33:48.204Z,47.23
2017-09-27T17:36:27.016Z,55.93
2017-09-27T17:39:00.739Z,54.00
2017-09-27T17:41:43.239Z,46.10
2017-09-27T17:44:19.288Z,47.40
2017-09-27T17:47:02.455Z,47.87
2017-09-27T17:49:39.369Z,50.70
2017-09-27T17:52:20.993Z,43.53
2017-09-27T17:55:03.360Z,44.27
2017-09-27T17:57:41.673Z,40.70
2017-09-27T18:00:22.311Z,52.60
2017-09-27T18:03:01.084Z,38.73
2017-09-27T18:09:13.800Z,38.47
2017-09-27T18:12:00.562Z,40.80
2017-09-27T18:14:46.647Z,39.77
2017-09-27T18:17:32.015Z,40.53
2017-09-27T18:20:16.372Z,46.43
2017-09-27T18:22:58.177Z,49.23
2017-09-27T18:25:40.031Z,39.03
2017-09-27T18:28:21.828Z,51.13
2017-09-27T18:31:04.288Z,61.10
2017-09-27T18:33:45.620Z,52.87
2017-09-27T18:36:27.019Z,53.03
2017-09-27T18:39:07.898Z,49.20
2017-09-27T18:41:45.711Z,43.73
2017-09-27T18:44:27.714Z,47.20
2017-09-27T18:47:06.326Z,49.17
2017-09-27T18:49:49.142Z,43.33
2017-09-27T18:52:28.980Z,44.67
2017-09-27T18:55:07.155Z,42.80
2017-09-27T18:57:49.477Z,36.10
2017-09-27T19:00:36.740Z,40.47
2017-09-27T19:03:07.528Z,37.30
2017-09-27T19:05:51.504Z,45.63
2017-09-27T19:08:33.051Z,47.53
2017-09-27T19:11:14.656Z,44.23
2017-09-27T19:13:53.464Z,40.77
2017-09-27T19:16:24.429Z,47.07
2017-09-27T19:18:58.851Z,36.60
2017-09-27T19:21:29.958Z,47.57
2017-09-27T19:24:00.309Z,48.70
2017-09-27T19:26:30.840Z,37.90
2017-09-27T19:29:03.737Z,37.57
2017-09-27T19:31:34.752Z,37.47
2017-09-27T19:34:07.984Z,38.13
2017-09-27T19:36:38.586Z,38.97
2017-09-27T19:39:09.972Z,38.03
2017-09-27T19:41:41.637Z,37.60
2017-09-27T19:44:18.038Z,30.50
2017-09-27T19:46:49.052Z,35.73
2017-09-27T19:49:20.130Z,36.67
2017-09-27T19:51:54.884Z,34.13
2017-09-27T19:54:26.192Z,39.10
2017-09-27T19:56:55.813Z,31.57
2017-09-27T19:59:27.479Z,32.70
2017-09-27T20:01:58.296Z,31.77
2017-09-27T20:04:29.058Z,31.67
2017-09-27T20:06:57.809Z,35.40
2017-09-27T20:09:31.358Z,30.33
2017-09-27T20:12:01.253Z,39.30
2017-09-27T20:14:30.486Z,34.80
2017-09-27T20:17:01.061Z,26.70
2017-09-27T20:19:31.615Z,27.57
2017-09-27T20:22:00.940Z,38.90
2017-09-27T20:24:31.387Z,33.17
2017-09-27T20:27:06.728Z,33.70
2017-09-27T20:29:39.088Z,27.60
2017-09-27T20:32:11.051Z,29.50
2017-09-27T20:34:40.544Z,27.27
2017-09-27T20:37:09.161Z,28.10
2017-09-27T20:39:37.809Z,25.53
2017-09-27T20:42:06.443Z,31.17
2017-09-27T20:44:35.112Z,29.97
2017-09-27T20:47:03.738Z,26.10
2017-09-27T20:49:32.366Z,27.53
2017-09-27T20:52:01.066Z,31.67
2017-09-27T20:54:33.579Z,27.03
2017-09-27T20:57:06.037Z,27.37
2017-09-27T20:59:38.642Z,23.77
2017-09-27T21:02:16.397Z,23.23
2017-09-27T21:04:48.302Z,27.73
2017-09-27T21:07:20.147Z,24.17
2017-09-27T21:09:51.201Z,24.00
2017-09-27T21:12:22.357Z,24.67
2017-09-27T21:14:54.060Z,22.90
2017-09-27T21:17:25.681Z,26.53
2017-09-27T21:19:56.355Z,28.20
2017-09-27T21:22:25.086Z,22.27
2017-09-27T21:25:07.891Z,26.17
2017-09-27T21:27:48.518Z,28.30
2017-09-27T21:30:24.899Z,24.17
2017-09-27T21:33:05.785Z,26.60
2017-09-27T21:35:37.729Z,24.60
2017-09-27T21:38:09.503Z,28.43
2017-09-27T21:40:41.695Z,23.77
2017-09-27T21:43:13.860Z,25.90
2017-09-27T21:45:45.334Z,26.80
2017-09-27T21:48:14.009Z,24.10
2017-09-27T21:50:42.616Z,23.23
2017-09-27T21:53:11.297Z,23.10
2017-09-27T21:55:39.938Z,32.07
2017-09-27T21:58:08.574Z,21.53
2017-09-27T22:00:37.241Z,19.17
2017-09-27T22:03:05.907Z,23.40
2017-09-27T22:05:34.085Z,21.70
2017-09-27T22:08:02.702Z,29.83
2017-09-27T22:10:31.358Z,24.17
2017-09-27T22:13:00.011Z,18.67
2017-09-27T22:15:28.635Z,26.60
2017-09-27T22:17:57.268Z,28.13
2017-09-27T22:20:26.010Z,24.30
2017-09-27T22:22:54.649Z,21.47
2017-09-27T22:25:23.337Z,25.80
2017-09-27T22:27:51.986Z,19.77
2017-09-27T22:30:20.617Z,24.90
2017-09-27T22:32:49.329Z,20.60
2017-09-27T22:35:17.983Z,23.67
2017-09-27T22:37:46.645Z,21.30
2017-09-27T22:40:15.249Z,25.20
2017-09-27T22:42:43.910Z,18.90
2017-09-27T22:45:12.575Z,26.10
2017-09-27T22:47:41.186Z,21.43
2017-09-27T22:50:10.250Z,25.53
2017-09-27T22:52:38.927Z,20.53
2017-09-27T22:55:07.604Z,22.47
2017-09-27T22:57:36.223Z,24.30
2017-09-27T23:00:04.924Z,18.20
2017-09-27T23:02:33.539Z,26.50
2017-09-27T23:05:02.154Z,20.30
2017-09-27T23:07:30.808Z,20.67
2017-09-27T23:09:59.433Z,26.20
2017-09-27T23:12:36.100Z,18.40
2017-09-27T23:15:12.423Z,24.70
2017-09-27T23:17:49.074Z,20.70
2017-09-27T23:20:23.008Z,21.90
2017-09-27T23:22:58.274Z,18.53
2017-09-27T23:25:32.352Z,21.73
2017-09-27T23:28:09.114Z,17.83
2017-09-27T23:30:46.796Z,21.87
2017-09-27T23:33:27.785Z,19.40
2017-09-27T23:36:07.305Z,21.00
2017-09-27T23:38:47.537Z,19.27
2017-09-27T23:41:25.830Z,23.67
2017-09-27T23:44:01.058Z,19.50
2017-09-27T23:46:36.048Z,23.23
2017-09-27T23:49:07.255Z,19.40
2017-09-27T23:51:35.994Z,18.67
2017-09-27T23:54:04.610Z,17.63
2017-09-27T23:56:33.270Z,19.27
2017-09-27T23:59:02.032Z,21.77
